createdAt,value
2017-04-24T00:00:15.121Z,1.94
2017-04-24T00:01:13.657Z,1.84
2017-04-24T00:02:11.954Z,2.07
2017-04-24T00:03:10.581Z,2.13
2017-04-24T00:04:08.378Z,2.10
2017-04-24T00:05:06.265Z,2.06
2017-04-24T00:06:04.121Z,2.20
2017-04-24T00:07:01.978Z,2.40
2017-04-24T00:07:59.809Z,1.94
2017-04-24T00:08:57.689Z,2.47
2017-04-24T00:09:55.514Z,2.00
2017-04-24T00:10:53.325Z,2.50
2017-04-24T00:11:51.113Z,2.41
2017-04-24T00:12:48.917Z,1.74
2017-04-24T00:13:46.752Z,1.86
2017-04-24T00:14:44.571Z,1.54
2017-04-24T00:15:42.492Z,1.70
2017-04-24T00:16:40.288Z,2.40
2017-04-24T00:17:38.127Z,1.83
2017-04-24T00:18:35.922Z,1.90
2017-04-24T00:19:33.745Z,2.44
2017-04-24T00:20:31.541Z,2.21
2017-04-24T00:21:30.085Z,2.94
2017-04-24T00:22:27.913Z,1.96
2017-04-24T00:23:25.793Z,1.69
2017-04-24T00:24:23.681Z,1.91
2017-04-24T00:25:21.565Z,2.09
2017-04-24T00:26:19.364Z,1.81
2017-04-24T00:27:17.205Z,1.67
2017-04-24T00:28:15.769Z,1.73
2017-04-24T00:29:13.577Z,1.96
2017-04-24T00:30:12.139Z,2.77
2017-04-24T00:31:10.713Z,2.09
2017-04-24T00:32:08.601Z,2.00
2017-04-24T00:33:06.417Z,2.20
2017-04-24T00:34:04.242Z,2.16
2017-04-24T00:35:02.127Z,1.70
2017-04-24T00:35:59.994Z,1.73
2017-04-24T00:36:57.804Z,2.13
2017-04-24T00:37:55.673Z,1.66
2017-04-24T00:38:53.565Z,2.00
2017-04-24T00:39:52.110Z,2.31
2017-04-24T00:40:49.953Z,1.76
2017-04-24T00:41:47.766Z,1.96
2017-04-24T00:42:45.625Z,2.24
2017-04-24T00:43:43.485Z,2.13
2017-04-24T00:44:41.309Z,1.77
2017-04-24T00:45:39.177Z,2.09
2017-04-24T00:46:37.045Z,2.17
2017-04-24T00:47:35.673Z,1.51
2017-04-24T00:48:33.527Z,2.16
2017-04-24T00:49:31.357Z,1.94
2017-04-24T00:50:29.172Z,2.19
2017-04-24T00:51:26.997Z,2.16
2017-04-24T00:52:24.826Z,2.41
2017-04-24T00:53:22.622Z,2.19
2017-04-24T00:54:20.437Z,2.26
2017-04-24T00:55:18.249Z,1.51
2017-04-24T00:56:16.825Z,2.47
2017-04-24T00:57:15.379Z,1.97
2017-04-24T00:58:13.205Z,2.31
2017-04-24T00:59:11.009Z,2.09
2017-04-24T01:00:08.989Z,2.19
2017-04-24T01:01:06.957Z,1.83
2017-04-24T01:02:04.849Z,2.10
2017-04-24T01:03:02.665Z,2.49
2017-04-24T01:04:00.481Z,1.80
2017-04-24T01:04:58.322Z,1.89
2017-04-24T01:05:56.192Z,1.96
2017-04-24T01:06:54.077Z,1.80
2017-04-24T01:07:51.898Z,1.94
2017-04-24T01:08:49.697Z,1.81
2017-04-24T01:09:47.493Z,1.93
2017-04-24T01:10:45.500Z,1.97
2017-04-24T01:11:43.389Z,1.64
2017-04-24T01:12:41.214Z,2.33
2017-04-24T01:13:39.041Z,2.00
2017-04-24T01:14:36.876Z,1.71
2017-04-24T01:15:34.741Z,3.47
2017-04-24T01:16:32.561Z,1.93
2017-04-24T01:17:30.413Z,2.04
2017-04-24T01:18:28.241Z,1.86
2017-04-24T01:19:26.885Z,1.80
2017-04-24T01:20:24.700Z,1.69
2017-04-24T01:21:22.529Z,1.64
2017-04-24T01:22:20.383Z,2.13
2017-04-24T01:23:18.218Z,1.90
2017-04-24T01:24:16.002Z,1.67
2017-04-24T01:25:14.582Z,2.33
2017-04-24T01:26:12.393Z,2.09
2017-04-24T01:27:10.208Z,1.61
2017-04-24T01:28:08.031Z,1.96
2017-04-24T01:29:06.573Z,2.17
2017-04-24T01:30:04.457Z,2.33
2017-04-24T01:31:02.240Z,2.10
2017-04-24T01:32:00.017Z,1.91
2017-04-24T01:32:57.834Z,1.74
2017-04-24T01:33:55.631Z,2.30
2017-04-24T01:34:53.430Z,2.10
2017-04-24T01:35:51.254Z,2.20
2017-04-24T01:36:49.081Z,2.04
2017-04-24T01:37:47.058Z,1.60
2017-04-24T01:38:44.857Z,1.99
2017-04-24T01:39:42.658Z,2.04
2017-04-24T01:40:40.499Z,1.79
2017-04-24T01:41:38.319Z,2.41
2017-04-24T01:42:36.149Z,2.19
2017-04-24T01:43:33.939Z,1.76
2017-04-24T01:44:32.489Z,1.60
2017-04-24T01:45:30.282Z,1.91
2017-04-24T01:46:28.105Z,1.74
2017-04-24T01:47:26.045Z,2.67
2017-04-24T01:48:23.877Z,2.14
2017-04-24T01:49:21.674Z,2.00
2017-04-24T01:50:19.509Z,1.89
2017-04-24T01:51:17.349Z,2.19
2017-04-24T01:52:15.151Z,1.97
2017-04-24T01:53:13.722Z,2.04
2017-04-24T01:54:12.269Z,1.99
2017-04-24T01:55:10.073Z,1.54
2017-04-24T01:56:07.884Z,1.61
2017-04-24T01:57:05.737Z,1.90
2017-04-24T01:58:04.310Z,2.99
2017-04-24T01:59:02.113Z,2.04
2017-04-24T01:59:59.969Z,1.97
2017-04-24T02:00:57.776Z,1.97
2017-04-24T02:01:55.630Z,2.40
2017-04-24T02:02:53.427Z,1.90
2017-04-24T02:03:51.233Z,1.86
2017-04-24T02:04:49.097Z,1.77
2017-04-24T02:05:46.901Z,1.84
2017-04-24T02:06:44.781Z,2.10
2017-04-24T02:07:42.607Z,1.94
2017-04-24T02:08:40.393Z,1.84
2017-04-24T02:09:38.206Z,1.93
2017-04-24T02:10:36.753Z,1.73
2017-04-24T02:11:34.553Z,1.40
2017-04-24T02:12:32.797Z,1.57
2017-04-24T02:13:30.625Z,1.87
2017-04-24T02:14:28.510Z,1.90
2017-04-24T02:15:26.354Z,1.73
2017-04-24T02:16:24.230Z,1.63
2017-04-24T02:17:22.061Z,1.91
2017-04-24T02:18:19.890Z,2.17
2017-04-24T02:19:17.714Z,1.99
2017-04-24T02:20:15.637Z,3.36
2017-04-24T02:21:13.428Z,1.77
2017-04-24T02:22:11.239Z,1.64
2017-04-24T02:23:09.813Z,2.17
2017-04-24T02:24:08.400Z,1.73
2017-04-24T02:25:07.098Z,1.64
2017-04-24T02:26:04.915Z,2.16
2017-04-24T02:27:02.733Z,1.81
2017-04-24T02:28:00.569Z,1.96
2017-04-24T02:28:58.385Z,1.60
2017-04-24T02:29:56.312Z,1.81
2017-04-24T02:30:54.140Z,2.07
2017-04-24T02:31:52.036Z,2.07
2017-04-24T02:32:49.849Z,1.94
2017-04-24T02:33:47.702Z,2.09
2017-04-24T02:34:45.525Z,2.03
2017-04-24T02:35:43.352Z,1.80
2017-04-24T02:36:41.149Z,1.47
2017-04-24T02:37:39.031Z,2.41
2017-04-24T02:38:36.889Z,1.97
2017-04-24T02:39:34.700Z,2.07
2017-04-24T02:40:32.513Z,1.83
2017-04-24T02:41:30.359Z,1.53
2017-04-24T02:42:28.172Z,1.43
2017-04-24T02:43:25.998Z,1.74
2017-04-24T02:44:23.797Z,1.69
2017-04-24T02:45:21.617Z,2.27
2017-04-24T02:46:19.437Z,1.73
2017-04-24T02:47:17.286Z,1.67
2017-04-24T02:48:15.097Z,1.79
2017-04-24T02:49:12.942Z,2.50
2017-04-24T02:50:10.821Z,1.39
2017-04-24T02:51:08.669Z,2.56
2017-04-24T02:52:06.604Z,1.81
2017-04-24T02:53:04.436Z,2.01
2017-04-24T02:54:02.241Z,2.07
2017-04-24T02:55:00.053Z,2.04
2017-04-24T02:55:57.931Z,1.81
2017-04-24T02:56:55.778Z,1.71
2017-04-24T02:57:53.594Z,1.44
2017-04-24T02:58:51.401Z,2.07
2017-04-24T02:59:49.224Z,1.90
2017-04-24T03:00:47.198Z,1.93
2017-04-24T03:01:45.040Z,1.66
2017-04-24T03:02:42.901Z,1.91
2017-04-24T03:03:40.702Z,2.09
2017-04-24T03:04:38.528Z,2.77
2017-04-24T03:05:36.366Z,1.66
2017-04-24T03:06:34.173Z,1.61
2017-04-24T03:07:32.047Z,2.36
2017-04-24T03:08:29.910Z,1.83
2017-04-24T03:09:28.454Z,2.89
2017-04-24T03:10:26.290Z,2.36
2017-04-24T03:11:24.829Z,1.83
2017-04-24T03:12:22.626Z,1.70
2017-04-24T03:13:20.477Z,2.41
2017-04-24T03:14:18.291Z,1.90
2017-04-24T03:15:16.123Z,3.57
2017-04-24T03:16:13.929Z,1.51
2017-04-24T03:17:11.786Z,1.47
2017-04-24T03:18:09.642Z,1.54
2017-04-24T03:19:07.475Z,1.64
2017-04-24T03:20:05.348Z,1.59
2017-04-24T03:21:03.185Z,1.53
2017-04-24T03:22:01.001Z,2.34
2017-04-24T03:22:58.857Z,2.04
2017-04-24T03:23:56.704Z,1.64
2017-04-24T03:24:54.509Z,1.53
2017-04-24T03:25:52.321Z,1.70
2017-04-24T03:26:50.119Z,1.67
2017-04-24T03:27:47.942Z,1.84
2017-04-24T03:28:46.556Z,2.26
2017-04-24T03:29:44.350Z,2.19
2017-04-24T03:30:42.837Z,1.57
2017-04-24T03:31:40.617Z,1.87
2017-04-24T03:32:38.441Z,1.69
2017-04-24T03:33:36.241Z,2.09
2017-04-24T03:34:34.064Z,1.73
2017-04-24T03:35:32.609Z,1.51
2017-04-24T03:36:30.409Z,1.61
2017-04-24T03:37:28.221Z,2.34
2017-04-24T03:38:26.000Z,2.49
2017-04-24T03:39:23.814Z,1.73
2017-04-24T03:40:21.665Z,1.61
2017-04-24T03:41:19.506Z,1.70
2017-04-24T03:42:17.345Z,1.74
2017-04-24T03:43:15.158Z,1.64
2017-04-24T03:44:12.966Z,1.87
2017-04-24T03:45:10.761Z,2.93
2017-04-24T03:46:08.581Z,1.57
2017-04-24T03:47:06.393Z,1.80
2017-04-24T03:48:04.239Z,1.84
2017-04-24T03:49:02.047Z,1.84
2017-04-24T03:49:59.877Z,1.77
2017-04-24T03:50:57.702Z,2.44
2017-04-24T03:51:55.524Z,1.80
2017-04-24T03:52:53.327Z,1.94
2017-04-24T03:53:51.188Z,1.37
2017-04-24T03:54:48.992Z,1.79
2017-04-24T03:55:46.807Z,2.71
2017-04-24T03:56:44.614Z,1.61
2017-04-24T03:57:42.603Z,1.67
2017-04-24T03:58:40.431Z,2.01
2017-04-24T03:59:38.297Z,1.74
2017-04-24T04:00:36.105Z,1.63
2017-04-24T04:01:33.886Z,1.54
2017-04-24T04:02:31.693Z,1.54
2017-04-24T04:03:29.486Z,1.66
2017-04-24T04:04:27.297Z,2.53
2017-04-24T04:05:25.096Z,2.27
2017-04-24T04:06:22.898Z,1.66
2017-04-24T04:07:20.693Z,1.89
2017-04-24T04:08:18.497Z,1.70
2017-04-24T04:09:17.049Z,1.71
2017-04-24T04:10:14.845Z,1.80
2017-04-24T04:11:12.659Z,1.97
2017-04-24T04:12:10.457Z,1.70
2017-04-24T04:13:08.274Z,2.11
2017-04-24T04:14:06.099Z,1.56
2017-04-24T04:15:03.907Z,1.90
2017-04-24T04:16:01.709Z,1.70
2017-04-24T04:17:01.713Z,1.61
2017-04-24T04:17:59.525Z,1.39
2017-04-24T04:18:57.355Z,1.80
2017-04-24T04:19:55.223Z,1.69
2017-04-24T04:20:53.071Z,2.34
2017-04-24T04:21:50.935Z,1.79
2017-04-24T04:22:48.766Z,2.14
2017-04-24T04:23:46.565Z,1.50
2017-04-24T04:24:44.394Z,1.80
2017-04-24T04:25:42.213Z,1.64
2017-04-24T04:26:40.039Z,1.31
2017-04-24T04:27:37.849Z,1.83
2017-04-24T04:28:35.673Z,1.66
2017-04-24T04:29:33.517Z,1.94
2017-04-24T04:30:32.157Z,2.00
2017-04-24T04:31:29.968Z,1.91
2017-04-24T04:32:27.825Z,1.63
2017-04-24T04:33:25.633Z,1.50
2017-04-24T04:34:23.453Z,1.41
2017-04-24T04:35:21.280Z,1.61
2017-04-24T04:36:19.103Z,1.46
2017-04-24T04:37:16.954Z,1.67
2017-04-24T04:38:14.809Z,1.70
2017-04-24T04:39:12.660Z,2.03
2017-04-24T04:40:10.608Z,1.49
2017-04-24T04:41:08.499Z,1.71
2017-04-24T04:42:06.317Z,1.81
2017-04-24T04:43:04.127Z,1.53
2017-04-24T04:44:02.697Z,1.61
2017-04-24T04:45:01.316Z,1.80
2017-04-24T04:45:59.173Z,1.81
2017-04-24T04:46:57.090Z,1.97
2017-04-24T04:47:55.265Z,1.60
2017-04-24T04:48:53.090Z,1.66
2017-04-24T04:49:51.632Z,1.87
2017-04-24T04:50:49.493Z,2.11
2017-04-24T04:51:47.310Z,1.51
2017-04-24T04:52:45.170Z,1.59
2017-04-24T04:53:43.033Z,1.44
2017-04-24T04:54:40.838Z,1.91
2017-04-24T04:55:38.669Z,1.63
2017-04-24T04:56:36.497Z,1.44
2017-04-24T04:57:34.581Z,1.94
2017-04-24T04:58:32.410Z,1.47
2017-04-24T04:59:30.222Z,1.47
2017-04-24T05:00:28.203Z,1.33
2017-04-24T05:01:26.099Z,1.61
2017-04-24T05:02:23.979Z,1.61
2017-04-24T05:03:21.793Z,1.99
2017-04-24T05:04:19.597Z,1.71
2017-04-24T05:05:17.464Z,1.77
2017-04-24T05:06:15.279Z,1.76
2017-04-24T05:07:13.116Z,1.63
2017-04-24T05:08:10.948Z,1.56
2017-04-24T05:09:09.493Z,1.74
2017-04-24T05:10:07.330Z,1.59
2017-04-24T05:11:05.203Z,1.73
2017-04-24T05:12:03.056Z,1.59
2017-04-24T05:13:00.877Z,1.64
2017-04-24T05:13:58.721Z,1.51
2017-04-24T05:14:56.646Z,1.70
2017-04-24T05:15:54.480Z,1.37
2017-04-24T05:16:52.299Z,2.03
2017-04-24T05:17:50.124Z,1.70
2017-04-24T05:18:47.209Z,2.24
2017-04-24T05:19:45.115Z,1.71
2017-04-24T05:20:43.650Z,2.01
2017-04-24T05:21:41.461Z,1.61
2017-04-24T05:22:39.306Z,1.74
2017-04-24T05:23:37.129Z,1.59
2017-04-24T05:24:35.717Z,1.70
2017-04-24T05:25:33.518Z,2.14
2017-04-24T05:26:31.316Z,1.51
2017-04-24T05:27:29.173Z,1.60
2017-04-24T05:28:26.992Z,1.31
2017-04-24T05:29:24.905Z,1.56
2017-04-24T05:30:23.566Z,1.46
2017-04-24T05:31:21.366Z,1.73
2017-04-24T05:32:19.161Z,1.80
2017-04-24T05:33:16.967Z,1.43
2017-04-24T05:34:14.796Z,1.69
2017-04-24T05:35:12.646Z,2.11
2017-04-24T05:36:10.441Z,2.11
2017-04-24T05:37:08.294Z,1.74
2017-04-24T05:38:06.085Z,1.51
2017-04-24T05:39:04.625Z,1.70
2017-04-24T05:40:02.481Z,1.39
2017-04-24T05:41:00.281Z,1.50
2017-04-24T05:41:58.230Z,2.09
2017-04-24T05:42:56.054Z,2.20
2017-04-24T05:43:53.858Z,1.43
2017-04-24T05:44:51.762Z,1.97
2017-04-24T05:45:49.658Z,1.77
2017-04-24T05:46:47.469Z,1.59
2017-04-24T05:47:45.269Z,1.66
2017-04-24T05:48:43.121Z,1.67
2017-04-24T05:49:40.973Z,1.53
2017-04-24T05:50:38.793Z,1.76
2017-04-24T05:51:36.621Z,2.11
2017-04-24T05:52:34.473Z,4.60
2017-04-24T05:53:33.035Z,3.57
2017-04-24T05:54:30.873Z,2.69
2017-04-24T05:55:29.301Z,5.29
2017-04-24T05:56:27.193Z,2.43
2017-04-24T05:57:25.043Z,2.83
2017-04-24T05:58:24.331Z,2.61
2017-04-24T05:59:23.658Z,2.53
2017-04-24T06:00:22.654Z,2.26
2017-04-24T06:01:21.870Z,2.21
2017-04-24T06:02:21.069Z,2.69
2017-04-24T06:03:20.262Z,2.66
2017-04-24T06:04:20.259Z,2.30
2017-04-24T06:05:19.965Z,2.59
2017-04-24T06:06:19.603Z,2.33
2017-04-24T06:07:18.195Z,2.62
2017-04-24T06:08:16.854Z,2.50
2017-04-24T06:09:17.318Z,2.02
2017-04-24T06:10:16.061Z,3.00
2017-04-24T06:11:14.338Z,2.57
2017-04-24T06:12:13.598Z,2.40
2017-04-24T06:13:12.818Z,2.67
2017-04-24T06:14:11.953Z,2.48
2017-04-24T06:15:10.950Z,2.65
2017-04-24T06:16:10.015Z,2.40
2017-04-24T06:17:10.293Z,5.38
2017-04-24T06:18:08.935Z,2.30
2017-04-24T06:19:07.435Z,2.42
2017-04-24T06:20:06.337Z,2.57
2017-04-24T06:21:05.016Z,2.62
2017-04-24T06:22:04.032Z,3.23
2017-04-24T06:23:03.705Z,2.90
2017-04-24T06:24:02.965Z,2.60
2017-04-24T06:25:02.327Z,2.40
2017-04-24T06:26:01.169Z,2.33
2017-04-24T06:26:59.636Z,2.48
2017-04-24T06:28:00.133Z,2.30
2017-04-24T06:28:59.682Z,3.95
2017-04-24T06:29:59.844Z,2.13
2017-04-24T06:30:59.518Z,2.47
2017-04-24T06:31:59.545Z,2.08
2017-04-24T06:32:58.422Z,2.28
2017-04-24T06:33:57.880Z,2.10
2017-04-24T06:34:56.669Z,2.10
2017-04-24T06:35:55.948Z,2.42
2017-04-24T06:36:54.982Z,2.07
2017-04-24T06:37:53.947Z,2.00
2017-04-24T06:38:53.297Z,1.80
2017-04-24T06:39:51.226Z,1.98
2017-04-24T06:40:49.696Z,2.32
2017-04-24T06:41:48.158Z,1.92
2017-04-24T06:42:46.933Z,1.72
2017-04-24T06:43:46.347Z,1.87
2017-04-24T06:44:45.674Z,1.60
2017-04-24T06:45:44.482Z,1.80
2017-04-24T06:46:43.845Z,1.52
2017-04-24T06:47:42.670Z,1.57
2017-04-24T06:48:43.078Z,1.88
2017-04-24T06:49:41.919Z,1.70
2017-04-24T06:50:41.862Z,1.60
2017-04-24T06:51:40.770Z,1.70
2017-04-24T06:52:39.384Z,1.48
2017-04-24T06:53:38.218Z,1.72
2017-04-24T06:54:37.132Z,2.47
2017-04-24T06:55:35.992Z,2.25
2017-04-24T06:56:35.085Z,1.78
2017-04-24T06:57:33.787Z,1.65
2017-04-24T06:58:33.457Z,1.70
2017-04-24T06:59:32.411Z,1.45
2017-04-24T07:00:31.314Z,1.77
2017-04-24T07:01:30.728Z,1.52
2017-04-24T07:02:30.400Z,1.63
2017-04-24T07:03:29.806Z,1.65
2017-04-24T07:04:28.427Z,1.62
2017-04-24T07:05:27.062Z,1.43
2017-04-24T07:06:26.536Z,1.52
2017-04-24T07:07:25.679Z,1.47
2017-04-24T07:08:24.309Z,1.48
2017-04-24T07:09:23.200Z,1.68
2017-04-24T07:10:23.546Z,1.90
2017-04-24T07:11:22.331Z,1.42
2017-04-24T07:12:21.313Z,1.30
2017-04-24T07:13:20.279Z,1.73
2017-04-24T07:14:20.012Z,1.52
2017-04-24T07:15:19.039Z,1.53
2017-04-24T07:16:19.018Z,1.85
2017-04-24T07:17:18.353Z,1.32
2017-04-24T07:18:18.051Z,1.63
2017-04-24T07:19:16.825Z,2.05
2017-04-24T07:20:15.505Z,1.55
2017-04-24T07:21:13.912Z,1.37
2017-04-24T07:22:11.909Z,1.72
2017-04-24T07:23:10.620Z,1.18
2017-04-24T07:24:09.916Z,1.38
2017-04-24T07:25:10.009Z,1.50
2017-04-24T07:26:10.676Z,1.30
2017-04-24T07:27:10.274Z,1.45
2017-04-24T07:28:09.577Z,1.30
2017-04-24T07:29:08.266Z,1.32
2017-04-24T07:30:07.237Z,1.30
2017-04-24T07:31:06.155Z,1.47
2017-04-24T07:32:05.526Z,1.43
2017-04-24T07:33:03.895Z,1.78
2017-04-24T07:34:02.477Z,1.42
2017-04-24T07:35:01.383Z,1.65
2017-04-24T07:36:01.162Z,1.43
2017-04-24T07:37:01.733Z,1.52
2017-04-24T07:38:01.280Z,1.59
2017-04-24T07:39:02.063Z,1.57
2017-04-24T07:40:01.109Z,1.79
2017-04-24T07:41:00.533Z,1.86
2017-04-24T07:41:59.369Z,1.69
2017-04-24T07:42:59.382Z,1.49
2017-04-24T07:43:57.784Z,1.52
2017-04-24T07:44:56.393Z,1.94
2017-04-24T07:45:55.624Z,2.03
2017-04-24T07:46:55.085Z,1.41
2017-04-24T07:47:55.045Z,1.46
2017-04-24T07:48:53.784Z,2.01
2017-04-24T07:49:52.301Z,1.62
2017-04-24T07:50:51.327Z,1.84
2017-04-24T07:51:50.711Z,1.40
2017-04-24T07:52:48.795Z,1.60
2017-04-24T07:53:48.151Z,1.57
2017-04-24T07:54:47.423Z,1.76
2017-04-24T07:55:47.146Z,1.61
2017-04-24T07:56:47.110Z,1.50
2017-04-24T07:57:46.803Z,1.56
2017-04-24T07:58:46.240Z,1.79
2017-04-24T07:59:46.058Z,1.24
2017-04-24T08:00:46.501Z,1.57
2017-04-24T08:01:45.605Z,1.33
2017-04-24T08:02:44.692Z,1.47
2017-04-24T08:03:45.717Z,1.57
2017-04-24T08:04:44.960Z,1.79
2017-04-24T08:05:42.975Z,1.86
2017-04-24T08:06:40.869Z,1.57
2017-04-24T08:07:38.778Z,1.64
2017-04-24T08:08:38.808Z,1.81
2017-04-24T08:09:37.284Z,1.47
2017-04-24T08:10:36.927Z,1.43
2017-04-24T08:11:37.976Z,1.60
2017-04-24T08:12:37.286Z,1.80
2017-04-24T08:13:35.675Z,1.54
2017-04-24T08:14:33.738Z,2.03
2017-04-24T08:15:32.081Z,1.79
2017-04-24T08:16:30.864Z,1.44
2017-04-24T08:17:31.199Z,1.89
2017-04-24T08:18:31.560Z,1.33
2017-04-24T08:19:30.483Z,1.41
2017-04-24T08:20:29.457Z,1.43
2017-04-24T08:21:28.684Z,1.56
2017-04-24T08:22:27.598Z,1.70
2017-04-24T08:23:28.070Z,1.50
2017-04-24T08:24:27.467Z,2.31
2017-04-24T08:25:26.247Z,1.63
2017-04-24T08:26:26.818Z,1.57
2017-04-24T08:27:26.066Z,1.63
2017-04-24T08:28:25.333Z,1.44
2017-04-24T08:29:24.836Z,1.64
2017-04-24T08:30:24.192Z,1.61
2017-04-24T08:31:23.984Z,1.89
2017-04-24T08:32:23.923Z,1.33
2017-04-24T08:33:24.433Z,2.26
2017-04-24T08:34:24.217Z,2.11
2017-04-24T08:35:23.521Z,1.44
2017-04-24T08:36:22.846Z,1.69
2017-04-24T08:37:22.050Z,1.54
2017-04-24T08:38:22.275Z,1.37
2017-04-24T08:39:20.409Z,1.30
2017-04-24T08:40:19.158Z,1.79
2017-04-24T08:41:17.574Z,1.54
2017-04-24T08:42:15.657Z,1.91
2017-04-24T08:43:13.519Z,1.53
2017-04-24T08:44:12.127Z,1.60
2017-04-24T08:45:10.982Z,1.69
2017-04-24T08:46:09.045Z,1.53
2017-04-24T08:47:07.895Z,1.57
2017-04-24T08:48:07.503Z,1.53
2017-04-24T08:49:05.483Z,1.37
2017-04-24T08:50:04.558Z,2.20
2017-04-24T08:51:04.513Z,1.40
2017-04-24T08:52:04.770Z,1.70
2017-04-24T08:53:04.881Z,1.91
2017-04-24T08:54:03.979Z,2.29
2017-04-24T08:55:01.889Z,1.70
2017-04-24T08:55:59.737Z,1.63
2017-04-24T08:56:57.577Z,1.71
2017-04-24T08:57:55.389Z,1.64
2017-04-24T08:58:53.980Z,1.79
2017-04-24T08:59:51.801Z,1.40
2017-04-24T09:00:49.024Z,2.16
2017-04-24T09:01:47.621Z,1.81
2017-04-24T09:02:46.180Z,2.17
2017-04-24T09:03:44.070Z,1.57
2017-04-24T09:04:41.974Z,2.29
2017-04-24T09:05:39.830Z,1.56
2017-04-24T09:06:37.665Z,1.27
2017-04-24T09:07:35.550Z,1.33
2017-04-24T09:08:33.490Z,1.81
2017-04-24T09:09:31.378Z,1.61
2017-04-24T09:10:29.198Z,1.73
2017-04-24T09:11:27.049Z,1.64
2017-04-24T09:12:24.999Z,3.11
2017-04-24T09:13:22.817Z,1.36
2017-04-24T09:14:20.642Z,1.80
2017-04-24T09:15:19.376Z,1.40
2017-04-24T09:16:17.205Z,1.57
2017-04-24T09:17:15.964Z,1.43
2017-04-24T09:18:14.993Z,1.87
2017-04-24T09:19:12.845Z,1.33
2017-04-24T09:20:10.725Z,1.49
2017-04-24T09:21:08.595Z,1.47
2017-04-24T09:22:06.465Z,1.79
2017-04-24T09:23:04.301Z,1.56
2017-04-24T09:24:02.152Z,2.07
2017-04-24T09:25:00.018Z,1.47
2017-04-24T09:25:57.830Z,1.71
2017-04-24T09:26:55.693Z,1.64
2017-04-24T09:27:53.474Z,1.31
2017-04-24T09:28:51.370Z,1.64
2017-04-24T09:29:49.205Z,1.60
2017-04-24T09:30:47.029Z,1.83
2017-04-24T09:31:44.856Z,1.50
2017-04-24T09:32:43.790Z,1.51
2017-04-24T09:33:41.605Z,1.39
2017-04-24T09:34:39.429Z,1.61
2017-04-24T09:35:38.338Z,1.67
2017-04-24T09:36:36.348Z,1.51
2017-04-24T09:37:34.151Z,1.43
2017-04-24T09:38:32.696Z,1.59
2017-04-24T09:39:31.273Z,1.66
2017-04-24T09:40:29.833Z,1.59
2017-04-24T09:41:27.693Z,1.87
2017-04-24T09:42:25.518Z,1.57
2017-04-24T09:43:23.344Z,1.36
2017-04-24T09:44:21.405Z,1.76
2017-04-24T09:45:19.245Z,3.54
2017-04-24T09:46:17.871Z,1.71
2017-04-24T09:47:15.986Z,1.91
2017-04-24T09:48:14.541Z,2.27
2017-04-24T09:49:12.601Z,1.83
2017-04-24T09:50:10.489Z,1.94
2017-04-24T09:51:09.085Z,2.07
2017-04-24T09:52:06.938Z,1.56
2017-04-24T09:53:04.860Z,1.74
2017-04-24T09:54:03.463Z,1.70
2017-04-24T09:55:01.326Z,1.40
2017-04-24T09:55:59.154Z,2.10
2017-04-24T09:56:57.734Z,1.90
2017-04-24T09:57:56.291Z,1.74
2017-04-24T09:58:54.911Z,1.47
2017-04-24T09:59:52.801Z,1.37
2017-04-24T10:00:51.677Z,1.61
2017-04-24T10:01:49.581Z,1.60
2017-04-24T10:02:47.453Z,1.76
2017-04-24T10:03:45.329Z,2.10
2017-04-24T10:04:43.147Z,1.94
2017-04-24T10:05:41.009Z,1.90
2017-04-24T10:06:38.909Z,1.73
2017-04-24T10:07:36.780Z,1.76
2017-04-24T10:08:34.689Z,1.63
2017-04-24T10:09:32.754Z,1.61
2017-04-24T10:10:30.625Z,1.57
2017-04-24T10:11:28.430Z,1.79
2017-04-24T10:12:26.293Z,2.49
2017-04-24T10:13:24.850Z,1.64
2017-04-24T10:14:23.505Z,2.06
2017-04-24T10:15:21.314Z,1.64
2017-04-24T10:16:19.170Z,1.56
2017-04-24T10:17:17.076Z,1.76
2017-04-24T10:18:15.692Z,1.71
2017-04-24T10:19:14.271Z,1.89
2017-04-24T10:20:12.106Z,1.59
2017-04-24T10:21:10.347Z,2.06
2017-04-24T10:22:08.254Z,1.99
2017-04-24T10:23:06.108Z,2.04
2017-04-24T10:24:04.217Z,2.26
2017-04-24T10:25:02.097Z,1.61
2017-04-24T10:25:59.950Z,1.63
2017-04-24T10:26:57.841Z,1.83
2017-04-24T10:27:55.673Z,1.56
2017-04-24T10:28:54.589Z,1.51
2017-04-24T10:29:52.482Z,1.71
2017-04-24T10:30:50.445Z,1.66
2017-04-24T10:31:48.268Z,1.71
2017-04-24T10:32:46.118Z,1.59
2017-04-24T10:33:43.967Z,1.60
2017-04-24T10:34:41.822Z,1.79
2017-04-24T10:35:39.645Z,2.71
2017-04-24T10:36:38.321Z,1.83
2017-04-24T10:37:36.230Z,2.11
2017-04-24T10:38:34.085Z,1.71
2017-04-24T10:39:31.970Z,1.64
2017-04-24T10:40:29.840Z,1.81
2017-04-24T10:41:27.694Z,1.80
2017-04-24T10:42:25.595Z,2.01
2017-04-24T10:43:23.447Z,1.83
2017-04-24T10:44:21.350Z,1.87
2017-04-24T10:45:19.207Z,1.83
2017-04-24T10:46:17.142Z,1.70
2017-04-24T10:47:15.060Z,1.69
2017-04-24T10:48:12.905Z,1.63
2017-04-24T10:49:11.549Z,2.11
2017-04-24T10:50:09.430Z,1.81
2017-04-24T10:51:07.293Z,1.81
2017-04-24T10:52:05.209Z,1.50
2017-04-24T10:53:03.101Z,1.76
2017-04-24T10:54:01.172Z,1.70
2017-04-24T10:54:59.146Z,2.21
2017-04-24T10:55:57.737Z,1.73
2017-04-24T10:56:55.672Z,1.91
2017-04-24T10:57:53.525Z,1.63
2017-04-24T10:58:52.118Z,1.60
2017-04-24T10:59:49.982Z,1.73
2017-04-24T11:00:47.873Z,1.91
2017-04-24T11:01:45.679Z,1.84
2017-04-24T11:02:43.589Z,1.84
2017-04-24T11:03:41.485Z,2.23
2017-04-24T11:04:39.315Z,1.47
2017-04-24T11:05:37.261Z,1.73
2017-04-24T11:06:35.152Z,2.13
2017-04-24T11:07:33.748Z,2.01
2017-04-24T11:08:31.665Z,2.24
2017-04-24T11:09:29.541Z,2.29
2017-04-24T11:10:27.545Z,2.06
2017-04-24T11:11:25.433Z,1.73
2017-04-24T11:12:23.338Z,2.27
2017-04-24T11:13:21.182Z,1.70
2017-04-24T11:14:19.080Z,2.13
2017-04-24T11:15:16.984Z,2.14
2017-04-24T11:16:14.893Z,1.83
2017-04-24T11:17:12.791Z,2.01
2017-04-24T11:18:10.708Z,1.90
2017-04-24T11:19:08.594Z,2.31
2017-04-24T11:20:07.225Z,1.84
2017-04-24T11:21:05.138Z,2.10
2017-04-24T11:22:02.982Z,2.10
2017-04-24T11:23:00.837Z,2.30
2017-04-24T11:23:58.662Z,2.24
2017-04-24T11:24:56.512Z,2.17
2017-04-24T11:25:54.422Z,2.06
2017-04-24T11:26:52.497Z,2.24
2017-04-24T11:27:50.317Z,2.51
2017-04-24T11:28:48.164Z,2.27
2017-04-24T11:29:45.995Z,1.76
2017-04-24T11:30:43.841Z,1.99
2017-04-24T11:31:41.644Z,1.94
2017-04-24T11:32:39.521Z,2.60
2017-04-24T11:33:37.349Z,1.79
2017-04-24T11:34:35.874Z,2.13
2017-04-24T11:35:33.750Z,1.71
2017-04-24T11:36:31.667Z,1.63
2017-04-24T11:37:30.293Z,1.80
2017-04-24T11:38:28.285Z,2.17
2017-04-24T11:39:26.198Z,1.97
2017-04-24T11:40:24.061Z,2.13
2017-04-24T11:41:21.895Z,2.53
2017-04-24T11:42:19.950Z,1.96
2017-04-24T11:43:17.858Z,2.49
2017-04-24T11:44:15.745Z,2.03
2017-04-24T11:45:14.327Z,2.29
2017-04-24T11:46:13.047Z,1.94
2017-04-24T11:47:10.903Z,2.33
2017-04-24T11:48:08.781Z,2.26
2017-04-24T11:49:06.865Z,2.24
2017-04-24T11:50:04.849Z,2.50
2017-04-24T11:51:02.725Z,2.31
2017-04-24T11:52:00.521Z,2.27
2017-04-24T11:52:58.340Z,2.24
2017-04-24T11:53:56.146Z,1.79
2017-04-24T11:54:54.733Z,1.81
2017-04-24T11:55:53.364Z,2.47
2017-04-24T11:56:51.300Z,1.96
2017-04-24T11:57:49.190Z,2.36
2017-04-24T11:58:47.046Z,2.14
2017-04-24T11:59:45.408Z,1.84
2017-04-24T12:00:43.260Z,2.26
2017-04-24T12:01:41.120Z,1.93
2017-04-24T12:02:38.961Z,2.13
2017-04-24T12:03:36.873Z,2.49
2017-04-24T12:04:35.426Z,2.21
2017-04-24T12:05:33.262Z,2.00
2017-04-24T12:06:31.234Z,2.84
2017-04-24T12:07:29.086Z,2.46
2017-04-24T12:08:26.897Z,2.53
2017-04-24T12:09:24.721Z,2.03
2017-04-24T12:10:22.564Z,2.59
2017-04-24T12:11:20.400Z,1.96
2017-04-24T12:12:18.217Z,2.07
2017-04-24T12:13:16.116Z,2.24
2017-04-24T12:14:13.949Z,2.36
2017-04-24T12:15:11.829Z,2.11
2017-04-24T12:16:09.664Z,2.30
2017-04-24T12:17:07.468Z,3.16
2017-04-24T12:18:06.090Z,2.01
2017-04-24T12:19:03.889Z,2.51
2017-04-24T12:20:01.766Z,2.37
2017-04-24T12:20:59.649Z,2.31
2017-04-24T12:21:57.480Z,2.56
2017-04-24T12:22:55.293Z,1.97
2017-04-24T12:23:53.148Z,2.46
2017-04-24T12:24:50.941Z,2.09
2017-04-24T12:25:49.533Z,2.76
2017-04-24T12:26:47.405Z,1.90
2017-04-24T12:27:45.213Z,2.43
2017-04-24T12:28:43.066Z,2.29
2017-04-24T12:29:40.946Z,2.41
2017-04-24T12:30:39.732Z,2.36
2017-04-24T12:31:37.594Z,2.30
2017-04-24T12:32:47.218Z,1.79
2017-04-24T12:33:45.077Z,2.36
2017-04-24T12:34:42.897Z,2.36
2017-04-24T12:35:40.721Z,2.50
2017-04-24T12:36:38.598Z,1.90
2017-04-24T12:37:36.481Z,2.87
2017-04-24T12:38:35.038Z,2.30
2017-04-24T12:39:32.898Z,2.06
2017-04-24T12:40:30.766Z,2.49
2017-04-24T12:41:29.366Z,3.64
2017-04-24T12:42:27.170Z,2.53
2017-04-24T12:43:25.029Z,5.46
2017-04-24T12:44:22.966Z,4.77
2017-04-24T12:45:20.804Z,5.70
2017-04-24T12:46:18.783Z,4.41
2017-04-24T12:47:16.681Z,5.31
2017-04-24T12:48:15.300Z,6.47
2017-04-24T12:49:13.169Z,7.14
2017-04-24T12:50:11.017Z,5.34
2017-04-24T12:51:10.077Z,7.67
2017-04-24T12:52:07.931Z,16.49
2017-04-24T12:53:05.801Z,5.79
2017-04-24T12:54:03.644Z,9.09
2017-04-24T12:55:01.435Z,5.57